sensor_id;sensor_type;location;lat;lon;timestamp;pressure;altitude;pressure_sealevel;temperature;humidity
11712;BME280;5912;51.034;6.984;2023-06-24T00:02:13;56214.09;;;-142.13;67.67
11712;BME280;5912;51.034;6.984;2023-06-24T00:04:39;56202.09;;;-142.13;67.67
11712;BME280;5912;51.034;6.984;2023-06-24T00:07:04;56212.09;;;-142.13;67.37
11712;BME280;5912;51.034;6.984;2023-06-24T00:09:30;56228.13;;;-142.13;67.13
11712;BME280;5912;51.034;6.984;2023-06-24T00:11:56;56202.09;;;-142.13;67.41
11712;BME280;5912;51.034;6.984;2023-06-24T00:14:24;56198.06;;;-142.13;67.95
11712;BME280;5912;51.034;6.984;2023-06-24T00:16:52;56190.06;;;-142.13;68.12
11712;BME280;5912;51.034;6.984;2023-06-24T00:19:24;56210.09;;;-142.13;68.01
11712;BME280;5912;51.034;6.984;2023-06-24T00:21:50;56182.06;;;-142.13;68.37
11712;BME280;5912;51.034;6.984;2023-06-24T00:24:17;56192.06;;;-142.13;68.08
11712;BME280;5912;51.034;6.984;2023-06-24T00:26:42;56214.09;;;-142.13;68.42
11712;BME280;5912;51.034;6.984;2023-06-24T00:29:08;56208.09;;;-142.13;68.54
11712;BME280;5912;51.034;6.984;2023-06-24T00:31:33;56202.09;;;-142.13;68.66
11712;BME280;5912;51.034;6.984;2023-06-24T00:33:59;56200.09;;;-142.13;68.89
11712;BME280;5912;51.034;6.984;2023-06-24T00:36:24;56202.09;;;-142.13;68.78
11712;BME280;5912;51.034;6.984;2023-06-24T00:38:49;56198.06;;;-142.13;68.88
11712;BME280;5912;51.034;6.984;2023-06-24T00:41:16;56202.09;;;-142.13;68.98
11712;BME280;5912;51.034;6.984;2023-06-24T00:43:42;56208.09;;;-142.13;68.49
11712;BME280;5912;51.034;6.984;2023-06-24T00:46:07;56228.13;;;-142.13;68.80
11712;BME280;5912;51.034;6.984;2023-06-24T00:48:33;56224.13;;;-142.13;68.43
11712;BME280;5912;51.034;6.984;2023-06-24T00:50:58;56204.09;;;-142.13;68.79
11712;BME280;5912;51.034;6.984;2023-06-24T00:53:23;56212.09;;;-142.13;68.49
11712;BME280;5912;51.034;6.984;2023-06-24T00:55:51;56210.09;;;-142.13;68.62
11712;BME280;5912;51.034;6.984;2023-06-24T00:58:17;56214.09;;;-142.13;68.19
11712;BME280;5912;51.034;6.984;2023-06-24T01:00:46;56192.06;;;-142.13;67.88
11712;BME280;5912;51.034;6.984;2023-06-24T01:03:13;56208.09;;;-142.13;68.01
11712;BME280;5912;51.034;6.984;2023-06-24T01:05:39;56218.09;;;-142.13;67.78
11712;BME280;5912;51.034;6.984;2023-06-24T01:08:06;56228.13;;;-142.13;67.77
11712;BME280;5912;51.034;6.984;2023-06-24T01:10:31;56204.09;;;-142.13;67.84
11712;BME280;5912;51.034;6.984;2023-06-24T01:12:56;56236.13;;;-142.13;67.89
11712;BME280;5912;51.034;6.984;2023-06-24T01:15:22;56212.09;;;-142.13;68.17
11712;BME280;5912;51.034;6.984;2023-06-24T01:32:05;56220.13;;;-142.13;68.50
11712;BME280;5912;51.034;6.984;2023-06-24T01:39:34;56216.09;;;-142.13;68.83
11712;BME280;5912;51.034;6.984;2023-06-24T01:42:11;56256.16;;;-142.13;69.29
11712;BME280;5912;51.034;6.984;2023-06-24T01:44:40;56236.13;;;-142.13;69.25
11712;BME280;5912;51.034;6.984;2023-06-24T01:47:07;56250.16;;;-142.13;69.57
11712;BME280;5912;51.034;6.984;2023-06-24T01:49:38;56224.13;;;-142.13;69.19
11712;BME280;5912;51.034;6.984;2023-06-24T01:52:07;56228.13;;;-142.13;69.36
11712;BME280;5912;51.034;6.984;2023-06-24T01:54:34;56220.13;;;-142.13;69.36
11712;BME280;5912;51.034;6.984;2023-06-24T01:57:02;56246.16;;;-142.13;69.51
11712;BME280;5912;51.034;6.984;2023-06-24T01:59:29;56236.13;;;-142.13;69.84
11712;BME280;5912;51.034;6.984;2023-06-24T02:01:55;56230.13;;;-142.13;69.95
11712;BME280;5912;51.034;6.984;2023-06-24T02:04:21;56246.16;;;-142.13;69.95
11712;BME280;5912;51.034;6.984;2023-06-24T02:06:49;56252.16;;;-142.13;70.18
11712;BME280;5912;51.034;6.984;2023-06-24T02:09:17;56254.16;;;-142.13;70.28
11712;BME280;5912;51.034;6.984;2023-06-24T02:11:43;56240.16;;;-142.13;70.09
11712;BME280;5912;51.034;6.984;2023-06-24T02:14:10;56248.16;;;-142.13;69.93
11712;BME280;5912;51.034;6.984;2023-06-24T02:16:36;56232.13;;;-142.13;70.30
11712;BME280;5912;51.034;6.984;2023-06-24T02:19:02;56232.13;;;-142.13;69.90
11712;BME280;5912;51.034;6.984;2023-06-24T02:21:30;56262.19;;;-142.13;69.77
11712;BME280;5912;51.034;6.984;2023-06-24T02:23:56;56248.16;;;-142.13;69.38
11712;BME280;5912;51.034;6.984;2023-06-24T02:26:23;56248.16;;;-142.13;69.36
11712;BME280;5912;51.034;6.984;2023-06-24T02:28:49;56292.22;;;-142.13;69.22
11712;BME280;5912;51.034;6.984;2023-06-24T02:31:15;56216.09;;;-142.13;69.18
11712;BME280;5912;51.034;6.984;2023-06-24T02:33:41;56256.16;;;-142.13;69.37
11712;BME280;5912;51.034;6.984;2023-06-24T02:36:07;56236.13;;;-142.13;69.38
11712;BME280;5912;51.034;6.984;2023-06-24T02:38:33;56248.16;;;-142.13;69.31
11712;BME280;5912;51.034;6.984;2023-06-24T02:40:58;56224.13;;;-142.13;69.29
11712;BME280;5912;51.034;6.984;2023-06-24T02:43:25;56232.13;;;-142.13;68.89
11712;BME280;5912;51.034;6.984;2023-06-24T02:45:51;56250.16;;;-142.13;68.87
11712;BME280;5912;51.034;6.984;2023-06-24T02:48:17;56236.13;;;-142.13;68.97
11712;BME280;5912;51.034;6.984;2023-06-24T02:50:44;56226.13;;;-142.13;68.95
11712;BME280;5912;51.034;6.984;2023-06-24T02:53:11;56232.13;;;-142.13;68.77
11712;BME280;5912;51.034;6.984;2023-06-24T02:55:37;56248.16;;;-142.13;68.86
11712;BME280;5912;51.034;6.984;2023-06-24T02:58:03;56252.16;;;-142.13;68.92
11712;BME280;5912;51.034;6.984;2023-06-24T03:00:33;56244.16;;;-142.13;69.05
11712;BME280;5912;51.034;6.984;2023-06-24T03:03:00;56234.13;;;-142.13;69.07
11712;BME280;5912;51.034;6.984;2023-06-24T03:05:27;56260.19;;;-142.13;69.64
11712;BME280;5912;51.034;6.984;2023-06-24T03:07:52;56288.22;;;-142.13;69.65
11712;BME280;5912;51.034;6.984;2023-06-24T03:10:18;56238.13;;;-142.13;69.63
11712;BME280;5912;51.034;6.984;2023-06-24T03:12:43;56266.19;;;-142.13;70.22
11712;BME280;5912;51.034;6.984;2023-06-24T03:15:09;56242.16;;;-142.13;70.34
11712;BME280;5912;51.034;6.984;2023-06-24T03:17:35;56264.19;;;-142.13;70.34
11712;BME280;5912;51.034;6.984;2023-06-24T03:20:01;56262.19;;;-142.13;70.73
11712;BME280;5912;51.034;6.984;2023-06-24T03:22:27;56252.16;;;-142.13;70.88
11712;BME280;5912;51.034;6.984;2023-06-24T03:24:52;56286.22;;;-142.13;70.86
11712;BME280;5912;51.034;6.984;2023-06-24T03:27:18;56276.19;;;-142.13;71.10
11712;BME280;5912;51.034;6.984;2023-06-24T03:29:44;56256.16;;;-142.13;71.06
11712;BME280;5912;51.034;6.984;2023-06-24T03:32:09;56242.16;;;-142.13;70.89
11712;BME280;5912;51.034;6.984;2023-06-24T03:34:34;56264.19;;;-142.13;70.74
11712;BME280;5912;51.034;6.984;2023-06-24T03:37:00;56260.19;;;-142.13;70.92
11712;BME280;5912;51.034;6.984;2023-06-24T03:39:25;56250.16;;;-142.13;71.06
11712;BME280;5912;51.034;6.984;2023-06-24T03:41:51;56254.16;;;-142.13;71.48
11712;BME280;5912;51.034;6.984;2023-06-24T03:44:16;56266.19;;;-142.13;71.47
11712;BME280;5912;51.034;6.984;2023-06-24T03:46:41;56244.16;;;-142.13;71.66
11712;BME280;5912;51.034;6.984;2023-06-24T03:49:07;56260.19;;;-142.13;71.66
11712;BME280;5912;51.034;6.984;2023-06-24T03:51:32;56272.19;;;-142.13;71.45
11712;BME280;5912;51.034;6.984;2023-06-24T03:53:57;56256.16;;;-142.13;71.50
11712;BME280;5912;51.034;6.984;2023-06-24T03:56:23;56248.16;;;-142.13;71.25
11712;BME280;5912;51.034;6.984;2023-06-24T03:58:48;56280.22;;;-142.13;71.19
11712;BME280;5912;51.034;6.984;2023-06-24T04:01:13;56256.16;;;-142.13;71.26
11712;BME280;5912;51.034;6.984;2023-06-24T04:03:39;56258.16;;;-142.13;71.02
11712;BME280;5912;51.034;6.984;2023-06-24T04:06:04;56268.19;;;-142.13;70.94
11712;BME280;5912;51.034;6.984;2023-06-24T04:08:30;56260.19;;;-142.13;70.65
11712;BME280;5912;51.034;6.984;2023-06-24T04:10:58;56252.16;;;-142.13;70.32
11712;BME280;5912;51.034;6.984;2023-06-24T04:13:25;56256.16;;;-142.13;70.30
11712;BME280;5912;51.034;6.984;2023-06-24T04:15:51;56272.19;;;-142.13;70.30
11712;BME280;5912;51.034;6.984;2023-06-24T04:18:16;56246.16;;;-142.13;69.92
11712;BME280;5912;51.034;6.984;2023-06-24T04:20:41;56256.16;;;-142.13;69.50
11712;BME280;5912;51.034;6.984;2023-06-24T04:23:07;56260.19;;;-142.13;68.75
11712;BME280;5912;51.034;6.984;2023-06-24T04:25:34;56236.13;;;-142.13;68.89
11712;BME280;5912;51.034;6.984;2023-06-24T04:27:59;56252.16;;;-142.13;68.61
11712;BME280;5912;51.034;6.984;2023-06-24T04:30:25;56230.13;;;-142.13;68.10
11712;BME280;5912;51.034;6.984;2023-06-24T04:32:50;56232.13;;;-142.13;68.04
11712;BME280;5912;51.034;6.984;2023-06-24T04:35:15;56226.13;;;-142.13;67.44
11712;BME280;5912;51.034;6.984;2023-06-24T04:37:41;56224.13;;;-142.13;67.51
11712;BME280;5912;51.034;6.984;2023-06-24T04:40:06;56228.13;;;-142.13;66.80
11712;BME280;5912;51.034;6.984;2023-06-24T04:42:32;56244.16;;;-142.13;66.93
11712;BME280;5912;51.034;6.984;2023-06-24T04:44:57;56212.09;;;-142.13;66.53
11712;BME280;5912;51.034;6.984;2023-06-24T04:47:23;56240.16;;;-142.13;66.09
11712;BME280;5912;51.034;6.984;2023-06-24T04:49:48;56202.09;;;-142.13;66.00
11712;BME280;5912;51.034;6.984;2023-06-24T04:52:13;56224.13;;;-142.13;65.36
11712;BME280;5912;51.034;6.984;2023-06-24T04:54:39;56216.09;;;-142.13;65.26
11712;BME280;5912;51.034;6.984;2023-06-24T04:57:07;56208.09;;;-142.13;65.29
11712;BME280;5912;51.034;6.984;2023-06-24T04:59:33;56224.13;;;-142.13;64.99
11712;BME280;5912;51.034;6.984;2023-06-24T05:01:58;56214.09;;;-142.13;64.57
11712;BME280;5912;51.034;6.984;2023-06-24T05:04:23;56208.09;;;-142.13;64.36
11712;BME280;5912;51.034;6.984;2023-06-24T05:06:49;56204.09;;;-142.13;64.53
11712;BME280;5912;51.034;6.984;2023-06-24T05:09:14;56182.06;;;-142.13;63.96
11712;BME280;5912;51.034;6.984;2023-06-24T05:11:40;56188.06;;;-142.13;63.38
11712;BME280;5912;51.034;6.984;2023-06-24T05:14:05;56192.06;;;-142.13;63.06
11712;BME280;5912;51.034;6.984;2023-06-24T05:16:31;56168.03;;;-142.13;62.84
11712;BME280;5912;51.034;6.984;2023-06-24T05:18:56;56200.09;;;-142.13;62.48
11712;BME280;5912;51.034;6.984;2023-06-24T05:21:21;56176.03;;;-142.13;62.03
11712;BME280;5912;51.034;6.984;2023-06-24T05:23:47;56204.09;;;-142.13;61.74
11712;BME280;5912;51.034;6.984;2023-06-24T05:26:12;56202.09;;;-142.13;62.27
11712;BME280;5912;51.034;6.984;2023-06-24T05:28:37;56196.06;;;-142.13;61.85
11712;BME280;5912;51.034;6.984;2023-06-24T05:31:02;56158.00;;;-142.13;61.70
11712;BME280;5912;51.034;6.984;2023-06-24T05:33:28;56164.03;;;-142.13;61.15
11712;BME280;5912;51.034;6.984;2023-06-24T05:35:53;56164.03;;;-142.13;60.84
11712;BME280;5912;51.034;6.984;2023-06-24T05:38:18;56156.00;;;-142.13;60.83
11712;BME280;5912;51.034;6.984;2023-06-24T05:40:44;56168.03;;;-142.13;60.60
11712;BME280;5912;51.034;6.984;2023-06-24T05:43:10;56146.00;;;-142.13;60.19
11712;BME280;5912;51.034;6.984;2023-06-24T05:45:35;56172.03;;;-142.13;59.97
11712;BME280;5912;51.034;6.984;2023-06-24T05:48:02;56144.00;;;-142.13;59.31
11712;BME280;5912;51.034;6.984;2023-06-24T05:50:27;56133.97;;;-142.13;58.97
11712;BME280;5912;51.034;6.984;2023-06-24T05:52:53;56142.00;;;-142.13;58.02
11712;BME280;5912;51.034;6.984;2023-06-24T05:55:18;56129.97;;;-142.13;58.29
11712;BME280;5912;51.034;6.984;2023-06-24T05:57:43;56117.97;;;-142.13;58.19
11712;BME280;5912;51.034;6.984;2023-06-24T06:00:09;56129.97;;;-142.13;57.67
11712;BME280;5912;51.034;6.984;2023-06-24T06:02:34;56109.94;;;-142.13;56.29
11712;BME280;5912;51.034;6.984;2023-06-24T06:05:00;56061.88;;;-142.13;54.36
11712;BME280;5912;51.034;6.984;2023-06-24T06:07:26;56063.88;;;-142.13;53.32
11712;BME280;5912;51.034;6.984;2023-06-24T06:09:52;56075.88;;;-142.13;51.61
11712;BME280;5912;51.034;6.984;2023-06-24T06:12:17;56061.88;;;-142.13;50.55
11712;BME280;5912;51.034;6.984;2023-06-24T06:14:42;56033.81;;;-142.13;49.50
11712;BME280;5912;51.034;6.984;2023-06-24T06:17:07;56027.81;;;-142.13;49.14
11712;BME280;5912;51.034;6.984;2023-06-24T06:19:33;55995.78;;;-142.13;47.68
11712;BME280;5912;51.034;6.984;2023-06-24T06:21:58;55995.78;;;-142.13;45.82
11712;BME280;5912;51.034;6.984;2023-06-24T06:24:23;56003.78;;;-142.13;44.06
11712;BME280;5912;51.034;6.984;2023-06-24T06:26:49;55947.69;;;-142.13;42.59
11712;BME280;5912;51.034;6.984;2023-06-24T06:29:14;55921.66;;;-142.13;41.59
11712;BME280;5912;51.034;6.984;2023-06-24T06:31:39;55883.59;;;-142.13;40.32
11712;BME280;5912;51.034;6.984;2023-06-24T06:34:05;55883.59;;;-142.13;39.73
11712;BME280;5912;51.034;6.984;2023-06-24T06:36:30;55839.53;;;-142.13;37.95
11712;BME280;5912;51.034;6.984;2023-06-24T06:38:55;55895.63;;;-142.13;37.55
11712;BME280;5912;51.034;6.984;2023-06-24T06:41:21;55833.53;;;-142.13;37.59
11712;BME280;5912;51.034;6.984;2023-06-24T06:43:53;55833.53;;;-142.13;37.03
11712;BME280;5912;51.034;6.984;2023-06-24T06:46:19;55831.53;;;-142.13;37.06
11712;BME280;5912;51.034;6.984;2023-06-24T06:48:44;55851.56;;;-142.13;37.02
11712;BME280;5912;51.034;6.984;2023-06-24T06:51:10;55863.56;;;-142.13;37.96
11712;BME280;5912;51.034;6.984;2023-06-24T06:53:35;55875.59;;;-142.13;38.67
11712;BME280;5912;51.034;6.984;2023-06-24T06:56:00;55909.63;;;-142.13;39.32
11712;BME280;5912;51.034;6.984;2023-06-24T06:58:25;55903.63;;;-142.13;39.80
11712;BME280;5912;51.034;6.984;2023-06-24T07:00:51;55879.59;;;-142.13;40.09
11712;BME280;5912;51.034;6.984;2023-06-24T07:03:16;55907.63;;;-142.13;40.55
11712;BME280;5912;51.034;6.984;2023-06-24T07:05:41;55919.66;;;-142.13;41.07
11712;BME280;5912;51.034;6.984;2023-06-24T07:08:07;55907.63;;;-142.13;40.98
11712;BME280;5912;51.034;6.984;2023-06-24T07:10:32;55939.69;;;-142.13;40.69
11712;BME280;5912;51.034;6.984;2023-06-24T07:12:58;55923.66;;;-142.13;40.93
11712;BME280;5912;51.034;6.984;2023-06-24T07:15:26;55927.66;;;-142.13;40.35
11712;BME280;5912;51.034;6.984;2023-06-24T07:17:52;55895.63;;;-142.13;40.08
11712;BME280;5912;51.034;6.984;2023-06-24T07:20:18;55899.63;;;-142.13;40.04
11712;BME280;5912;51.034;6.984;2023-06-24T07:22:44;55913.66;;;-142.13;40.25
11712;BME280;5912;51.034;6.984;2023-06-24T07:25:09;55919.66;;;-142.13;40.15
11712;BME280;5912;51.034;6.984;2023-06-24T07:27:34;55887.59;;;-142.13;38.98
11712;BME280;5912;51.034;6.984;2023-06-24T07:30:00;55857.56;;;-142.13;38.09
11712;BME280;5912;51.034;6.984;2023-06-24T07:32:25;55815.50;;;-142.13;36.71
11712;BME280;5912;51.034;6.984;2023-06-24T07:34:50;55821.50;;;-142.13;35.44
11712;BME280;5912;51.034;6.984;2023-06-24T07:37:16;55785.47;;;-142.13;34.57
11712;BME280;5912;51.034;6.984;2023-06-24T07:39:41;55801.47;;;-142.13;34.55
11712;BME280;5912;51.034;6.984;2023-06-24T07:42:07;55721.38;;;-142.13;33.58
11712;BME280;5912;51.034;6.984;2023-06-24T07:44:32;55703.34;;;-142.13;32.83
11712;BME280;5912;51.034;6.984;2023-06-24T07:46:57;55683.31;;;-142.13;31.74
11712;BME280;5912;51.034;6.984;2023-06-24T07:49:23;55649.25;;;-142.13;30.80
11712;BME280;5912;51.034;6.984;2023-06-24T07:51:48;55611.22;;;-142.13;29.52
11712;BME280;5912;51.034;6.984;2023-06-24T07:54:14;55613.22;;;-142.13;28.74
11712;BME280;5912;51.034;6.984;2023-06-24T07:56:40;55607.19;;;-142.13;28.38
11712;BME280;5912;51.034;6.984;2023-06-24T07:59:05;55589.19;;;-142.13;28.15
11712;BME280;5912;51.034;6.984;2023-06-24T08:01:31;55571.16;;;-142.13;27.73
11712;BME280;5912;51.034;6.984;2023-06-24T08:03:56;55567.16;;;-142.13;27.37
11712;BME280;5912;51.034;6.984;2023-06-24T08:06:21;55567.16;;;-142.13;26.84
11712;BME280;5912;51.034;6.984;2023-06-24T08:08:46;55521.09;;;-142.13;27.04
11712;BME280;5912;51.034;6.984;2023-06-24T08:11:12;55539.09;;;-142.13;26.75
11712;BME280;5912;51.034;6.984;2023-06-24T08:13:38;55505.06;;;-142.13;26.31
11712;BME280;5912;51.034;6.984;2023-06-24T08:16:03;55507.06;;;-142.13;26.23
11712;BME280;5912;51.034;6.984;2023-06-24T08:18:29;55493.03;;;-142.13;25.95
11712;BME280;5912;51.034;6.984;2023-06-24T08:20:54;55485.03;;;-142.13;25.55
11712;BME280;5912;51.034;6.984;2023-06-24T08:23:19;55483.03;;;-142.13;25.30
11712;BME280;5912;51.034;6.984;2023-06-24T08:25:45;55491.03;;;-142.13;25.42
11712;BME280;5912;51.034;6.984;2023-06-24T08:28:10;55483.03;;;-142.13;25.26
11712;BME280;5912;51.034;6.984;2023-06-24T08:30:36;55467.00;;;-142.13;25.07
11712;BME280;5912;51.034;6.984;2023-06-24T08:33:01;55475.03;;;-142.13;25.01
11712;BME280;5912;51.034;6.984;2023-06-24T08:35:26;55471.00;;;-142.13;25.11
11712;BME280;5912;51.034;6.984;2023-06-24T08:37:51;55487.03;;;-142.13;25.21
11712;BME280;5912;51.034;6.984;2023-06-24T08:40:17;55457.00;;;-142.13;24.82
11712;BME280;5912;51.034;6.984;2023-06-24T08:42:43;55463.00;;;-142.13;24.60
11712;BME280;5912;51.034;6.984;2023-06-24T08:45:09;55459.00;;;-142.13;24.68
11712;BME280;5912;51.034;6.984;2023-06-24T08:47:35;55453.00;;;-142.13;24.60
11712;BME280;5912;51.034;6.984;2023-06-24T08:50:13;55455.00;;;-142.13;24.82
11712;BME280;5912;51.034;6.984;2023-06-24T08:52:42;55459.00;;;-142.13;24.31
11712;BME280;5912;51.034;6.984;2023-06-24T08:55:09;55461.00;;;-142.13;24.59
11712;BME280;5912;51.034;6.984;2023-06-24T08:57:36;55461.00;;;-142.13;24.75
11712;BME280;5912;51.034;6.984;2023-06-24T09:00:01;55455.00;;;-142.13;24.40
11712;BME280;5912;51.034;6.984;2023-06-24T09:02:29;55459.00;;;-142.13;25.00
11712;BME280;5912;51.034;6.984;2023-06-24T09:04:54;55467.00;;;-142.13;24.68
11712;BME280;5912;51.034;6.984;2023-06-24T09:07:25;55459.00;;;-142.13;24.94
11712;BME280;5912;51.034;6.984;2023-06-24T09:09:51;55469.00;;;-142.13;24.99
11712;BME280;5912;51.034;6.984;2023-06-24T09:12:16;55457.00;;;-142.13;24.82
11712;BME280;5912;51.034;6.984;2023-06-24T09:14:48;55463.00;;;-142.13;25.17
11712;BME280;5912;51.034;6.984;2023-06-24T09:17:13;55479.03;;;-142.13;25.65
11712;BME280;5912;51.034;6.984;2023-06-24T09:19:38;55461.00;;;-142.13;25.28
11712;BME280;5912;51.034;6.984;2023-06-24T09:22:06;55446.97;;;-142.13;25.00
11712;BME280;5912;51.034;6.984;2023-06-24T09:24:36;55487.03;;;-142.13;25.48
11712;BME280;5912;51.034;6.984;2023-06-24T09:27:03;55475.03;;;-142.13;25.86
11712;BME280;5912;51.034;6.984;2023-06-24T09:29:32;55487.03;;;-142.13;25.80
11712;BME280;5912;51.034;6.984;2023-06-24T09:31:57;55505.06;;;-142.13;25.71
11712;BME280;5912;51.034;6.984;2023-06-24T09:34:25;55491.03;;;-142.13;25.33
11712;BME280;5912;51.034;6.984;2023-06-24T09:36:55;55487.03;;;-142.13;25.64
11712;BME280;5912;51.034;6.984;2023-06-24T09:39:22;55487.03;;;-142.13;25.52
11712;BME280;5912;51.034;6.984;2023-06-24T09:41:54;55481.03;;;-142.13;25.87
11712;BME280;5912;51.034;6.984;2023-06-24T09:44:19;55491.03;;;-142.13;25.70
11712;BME280;5912;51.034;6.984;2023-06-24T09:46:45;55503.06;;;-142.13;25.36
11712;BME280;5912;51.034;6.984;2023-06-24T09:49:11;55487.03;;;-142.13;25.80
11712;BME280;5912;51.034;6.984;2023-06-24T09:51:42;55493.03;;;-142.13;25.72
11712;BME280;5912;51.034;6.984;2023-06-24T09:54:09;55497.06;;;-142.13;25.64
11712;BME280;5912;51.034;6.984;2023-06-24T09:56:36;55503.06;;;-142.13;25.32
11712;BME280;5912;51.034;6.984;2023-06-24T09:59:04;55489.03;;;-142.13;25.32
11712;BME280;5912;51.034;6.984;2023-06-24T10:01:31;55495.03;;;-142.13;25.55
11712;BME280;5912;51.034;6.984;2023-06-24T10:03:58;55519.09;;;-142.13;25.49
11712;BME280;5912;51.034;6.984;2023-06-24T10:06:25;55523.09;;;-142.13;26.02
11712;BME280;5912;51.034;6.984;2023-06-24T10:08:51;55527.09;;;-142.13;26.63
11712;BME280;5912;51.034;6.984;2023-06-24T10:11:17;55505.06;;;-142.13;25.83
11712;BME280;5912;51.034;6.984;2023-06-24T10:13:42;55507.06;;;-142.13;25.41
11712;BME280;5912;51.034;6.984;2023-06-24T10:16:08;55493.03;;;-142.13;25.09
11712;BME280;5912;51.034;6.984;2023-06-24T10:18:39;55485.03;;;-142.13;25.27
11712;BME280;5912;51.034;6.984;2023-06-24T10:21:09;55499.06;;;-142.13;25.47
11712;BME280;5912;51.034;6.984;2023-06-24T10:26:22;55511.06;;;-142.13;25.04
11712;BME280;5912;51.034;6.984;2023-06-24T10:29:10;55493.03;;;-142.13;24.66
11712;BME280;5912;51.034;6.984;2023-06-24T10:37:08;55493.03;;;-142.13;23.86
11712;BME280;5912;51.034;6.984;2023-06-24T10:47:40;55469.00;;;-142.13;24.40
11712;BME280;5912;51.034;6.984;2023-06-24T10:50:13;55473.00;;;-142.13;24.02
11712;BME280;5912;51.034;6.984;2023-06-24T10:52:50;55442.97;;;-142.13;23.66
11712;BME280;5912;51.034;6.984;2023-06-24T10:55:22;55469.00;;;-142.13;23.89
11712;BME280;5912;51.034;6.984;2023-06-24T10:58:00;55455.00;;;-142.13;23.52
11712;BME280;5912;51.034;6.984;2023-06-24T11:00:35;55446.97;;;-142.13;23.17
11712;BME280;5912;51.034;6.984;2023-06-24T11:03:14;55465.00;;;-142.13;23.17
11712;BME280;5912;51.034;6.984;2023-06-24T11:05:55;55455.00;;;-142.13;22.43
11712;BME280;5912;51.034;6.984;2023-06-24T11:08:21;55453.00;;;-142.13;22.85
11712;BME280;5912;51.034;6.984;2023-06-24T11:10:48;55440.97;;;-142.13;23.27
11712;BME280;5912;51.034;6.984;2023-06-24T11:13:20;55453.00;;;-142.13;23.44
11712;BME280;5912;51.034;6.984;2023-06-24T11:15:46;55461.00;;;-142.13;23.41
11712;BME280;5912;51.034;6.984;2023-06-24T11:18:12;55455.00;;;-142.13;22.96
11712;BME280;5912;51.034;6.984;2023-06-24T11:20:43;55461.00;;;-142.13;23.27
11712;BME280;5912;51.034;6.984;2023-06-24T11:23:12;55442.97;;;-142.13;23.08
11712;BME280;5912;51.034;6.984;2023-06-24T11:25:41;55428.97;;;-142.13;22.19
11712;BME280;5912;51.034;6.984;2023-06-24T11:28:20;55432.97;;;-142.13;21.80
11712;BME280;5912;51.034;6.984;2023-06-24T11:30:49;55442.97;;;-142.13;21.78
11712;BME280;5912;51.034;6.984;2023-06-24T11:33:27;55418.94;;;-142.13;21.57
11712;BME280;5912;51.034;6.984;2023-06-24T11:35:53;55418.94;;;-142.13;21.80
11712;BME280;5912;51.034;6.984;2023-06-24T11:38:21;55426.94;;;-142.13;22.25
11712;BME280;5912;51.034;6.984;2023-06-24T11:40:52;55414.94;;;-142.13;21.83
11712;BME280;5912;51.034;6.984;2023-06-24T11:43:21;55402.91;;;-142.13;21.65
11712;BME280;5912;51.034;6.984;2023-06-24T11:45:57;55388.91;;;-142.13;21.46
11712;BME280;5912;51.034;6.984;2023-06-24T11:48:29;55408.94;;;-142.13;21.31
11712;BME280;5912;51.034;6.984;2023-06-24T11:50:57;55392.91;;;-142.13;21.29
11712;BME280;5912;51.034;6.984;2023-06-24T11:53:29;55392.91;;;-142.13;20.95
11712;BME280;5912;51.034;6.984;2023-06-24T11:55:56;55390.91;;;-142.13;21.23
11712;BME280;5912;51.034;6.984;2023-06-24T11:58:21;55402.91;;;-142.13;21.08
11712;BME280;5912;51.034;6.984;2023-06-24T12:00:48;55384.91;;;-142.13;21.24
11712;BME280;5912;51.034;6.984;2023-06-24T12:03:15;55382.91;;;-142.13;21.14
11712;BME280;5912;51.034;6.984;2023-06-24T12:05:40;55378.88;;;-142.13;20.70
11712;BME280;5912;51.034;6.984;2023-06-24T12:08:11;55366.88;;;-142.13;21.16
11712;BME280;5912;51.034;6.984;2023-06-24T12:10:37;55392.91;;;-142.13;21.36
11712;BME280;5912;51.034;6.984;2023-06-24T12:13:04;55370.88;;;-142.13;21.16
11712;BME280;5912;51.034;6.984;2023-06-24T12:15:31;55368.88;;;-142.13;21.09
11712;BME280;5912;51.034;6.984;2023-06-24T12:17:57;55372.88;;;-142.13;21.12
11712;BME280;5912;51.034;6.984;2023-06-24T12:20:24;55386.91;;;-142.13;20.94
11712;BME280;5912;51.034;6.984;2023-06-24T12:22:49;55366.88;;;-142.13;21.54
11712;BME280;5912;51.034;6.984;2023-06-24T12:25:16;55360.88;;;-142.13;21.47
11712;BME280;5912;51.034;6.984;2023-06-24T12:27:43;55378.88;;;-142.13;21.16
11712;BME280;5912;51.034;6.984;2023-06-24T12:30:09;55386.91;;;-142.13;21.81
11712;BME280;5912;51.034;6.984;2023-06-24T12:32:35;55394.91;;;-142.13;21.72
11712;BME280;5912;51.034;6.984;2023-06-24T12:35:01;55372.88;;;-142.13;21.68
11712;BME280;5912;51.034;6.984;2023-06-24T12:37:34;55376.88;;;-142.13;21.94
11712;BME280;5912;51.034;6.984;2023-06-24T12:39:59;55344.84;;;-142.13;21.24
11712;BME280;5912;51.034;6.984;2023-06-24T12:42:26;55366.88;;;-142.13;22.06
11712;BME280;5912;51.034;6.984;2023-06-24T12:44:52;55342.84;;;-142.13;21.85
11712;BME280;5912;51.034;6.984;2023-06-24T12:47:17;55374.88;;;-142.13;21.78
11712;BME280;5912;51.034;6.984;2023-06-24T12:49:43;55356.84;;;-142.13;21.57
11712;BME280;5912;51.034;6.984;2023-06-24T12:52:09;55368.88;;;-142.13;21.29
11712;BME280;5912;51.034;6.984;2023-06-24T12:54:34;55382.91;;;-142.13;21.38
11712;BME280;5912;51.034;6.984;2023-06-24T12:57:01;55382.91;;;-142.13;21.45
11712;BME280;5912;51.034;6.984;2023-06-24T12:59:26;55402.91;;;-142.13;21.88
11712;BME280;5912;51.034;6.984;2023-06-24T13:01:52;55390.91;;;-142.13;21.88
11712;BME280;5912;51.034;6.984;2023-06-24T13:04:18;55390.91;;;-142.13;21.96
11712;BME280;5912;51.034;6.984;2023-06-24T13:06:45;55392.91;;;-142.13;21.41
11712;BME280;5912;51.034;6.984;2023-06-24T13:09:11;55378.88;;;-142.13;21.80
11712;BME280;5912;51.034;6.984;2023-06-24T13:11:36;55390.91;;;-142.13;21.97
11712;BME280;5912;51.034;6.984;2023-06-24T13:14:02;55378.88;;;-142.13;22.37
11712;BME280;5912;51.034;6.984;2023-06-24T13:16:28;55378.88;;;-142.13;22.29
11712;BME280;5912;51.034;6.984;2023-06-24T13:18:53;55366.88;;;-142.13;21.26
11712;BME280;5912;51.034;6.984;2023-06-24T13:21:18;55366.88;;;-142.13;21.98
11712;BME280;5912;51.034;6.984;2023-06-24T13:23:44;55374.88;;;-142.13;21.38